Patriot — WDC2859 — position and weather

sailwx.info

Track history (hours):
 
Tides and Currents Weather Stations Pressure Air Temp Water Temp Dewpoint Dewpoint Depression Visibility Wind Speed Wind Dir Waves Ship Positions

Patriot

Owner: AMNAV Maritime Corporation, Oakland, CA. More information available from US FCC via Universal Licensing System and Coast Guard Vessel Documentation Center.

Last reported at 2016-Sep-25 09:33 UTC. Time now 2016-Sep-25 10:34 UTC.
Position N 37°49' W 122°19'.

Length 31 m; draft 4.6 m.

Type: Tug. MMSI: 366998680.

Date/timePositionNaut miles runAvg speedWind from/ knotsBaromVisibWave heightAir tempDewpointWater temp
2016-Sep-25 09:33N 37°49' W 122°19'0 0.0
2016-Sep-25 07:33N 37°49' W 122°19'0 0.0
2016-Sep-25 04:33N 37°49' W 122°19'0 0.0
2016-Sep-25 00:33N 37°49' W 122°19'0 0.0
2016-Sep-24 22:33N 37°49' W 122°19'0 0.0
2016-Sep-24 21:33N 37°49' W 122°19'0 0.0
2016-Sep-24 19:33N 37°49' W 122°19'0 0.0
2016-Sep-24 18:33N 37°49' W 122°19'0 0.0
2016-Sep-24 17:33N 37°49' W 122°19'0 0.0
2016-Sep-24 16:33N 37°49' W 122°19'0 0.0
2016-Sep-24 14:33N 37°49' W 122°19'1 0.4
2016-Sep-24 12:33N 37°49' W 122°20'1 0.4
2016-Sep-24 10:33N 37°49' W 122°19'0 0.0
2016-Sep-24 09:33N 37°49' W 122°19'0 0.0
2016-Sep-24 03:33N 37°49' W 122°19'0 0.0
2016-Sep-24 02:33N 37°49' W 122°19'0 0.0
2016-Sep-24 01:33N 37°49' W 122°19'0 0.0
2016-Sep-24 00:33N 37°49' W 122°19'0 0.0
2016-Sep-23 19:33N 37°49' W 122°19'0 0.0
2016-Sep-23 17:34N 37°49' W 122°19'0 0.0
2016-Sep-23 16:33N 37°49' W 122°19'0 0.0
2016-Sep-23 15:33N 37°49' W 122°19'6 3.1
2016-Sep-23 13:33N 37°55' W 122°22'13 0.4
2016-Sep-22 03:13N 38°02' W 122°08'13 4.9
2016-Sep-22 00:33N 37°55' W 122°22'2 2.3
2016-Sep-21 23:33N 37°54' W 122°25'7 6.8
2016-Sep-21 22:33N 37°49' W 122°19'0 0.0
2016-Sep-21 19:33N 37°49' W 122°19'0 0.0
2016-Sep-21 16:33N 37°49' W 122°19'9 1.3
2016-Sep-21 09:33N 37°57' W 122°26'8 7.9
2016-Sep-21 08:33N 38°03' W 122°19'9 2.8
2016-Sep-21 05:30N 38°02' W 122°08'0 0.0
2016-Sep-21 03:33N 38°02' W 122°08'0 0.0
2016-Sep-21 02:33N 38°02' W 122°08'13 0.5
2016-Sep-20 02:33N 37°60' W 122°25'12 4.2
2016-Sep-19 23:33N 37°48' W 122°19'2 0.4
2016-Sep-19 19:33N 37°49' W 122°19'0 0.0
2016-Sep-19 18:33N 37°49' W 122°19'0 0.0
2016-Sep-19 16:33N 37°49' W 122°19'0 0.0
2016-Sep-19 14:33N 37°49' W 122°19'2 1.6
2016-Sep-19 13:34N 37°48' W 122°19'0 0.3
2016-Sep-19 12:33N 37°48' W 122°18'2 1.8
2016-Sep-19 11:33N 37°49' W 122°19'0 0.0
2016-Sep-19 09:33N 37°49' W 122°19'0 0.0
2016-Sep-19 07:34N 37°49' W 122°19'0 0.0
2016-Sep-19 06:34N 37°49' W 122°19'0 0.0
2016-Sep-19 03:34N 37°49' W 122°19'0 0.0
2016-Sep-19 02:34N 37°49' W 122°19'0 0.0
2016-Sep-19 00:34N 37°49' W 122°19'0 0.0
2016-Sep-18 19:34N 37°49' W 122°19'0 0.0
2016-Sep-18 15:34N 37°49' W 122°19'1 0.8
2016-Sep-18 14:33N 37°49' W 122°20'1 0.2
2016-Sep-18 10:33N 37°49' W 122°19'0 0.0
2016-Sep-18 09:33N 37°49' W 122°19'0 0.0
2016-Sep-18 02:33N 37°49' W 122°19'0 0.0
2016-Sep-18 01:33N 37°49' W 122°19'0 0.0
2016-Sep-18 00:33N 37°49' W 122°19'1 0.7
2016-Sep-17 22:33N 37°49' W 122°20'7 6.6
2016-Sep-17 21:33N 37°54' W 122°24'1 0.9
2016-Sep-17 20:33N 37°54' W 122°23'6 4.7
2016-Sep-17 19:16N 37°49' W 122°19'2 0.3
2016-Sep-17 13:33N 37°49' W 122°20'1 0.8
2016-Sep-17 12:33N 37°49' W 122°19'1 0.5
2016-Sep-17 10:33N 37°48' W 122°21'0 0.0
2016-Sep-17 09:33N 37°48' W 122°21'0 0.0
2016-Sep-17 08:33N 37°48' W 122°21'0 0.0
2016-Sep-17 07:33N 37°48' W 122°21'0 0.0
2016-Sep-17 05:33N 37°48' W 122°21'3 2.5
2016-Sep-17 04:33N 37°50' W 122°22'3 0.8
2016-Sep-17 00:33N 37°49' W 122°19'0 0.0
2016-Sep-16 17:33N 37°49' W 122°19'6 2.9
2016-Sep-16 15:33N 37°53' W 122°24'6 1.9
2016-Sep-16 12:33N 37°49' W 122°19'0 0.0
2016-Sep-16 09:33N 37°49' W 122°19'0 0.0
2016-Sep-16 07:33N 37°49' W 122°19'0 0.0
2016-Sep-16 03:33N 37°49' W 122°19'0 0.0
2016-Sep-16 02:33N 37°49' W 122°19'0 0.0
2016-Sep-16 00:33N 37°49' W 122°19'0 0.0
2016-Sep-15 22:33N 37°49' W 122°19'0 0.0
2016-Sep-15 21:33N 37°49' W 122°19'0 0.0
2016-Sep-15 20:33N 37°49' W 122°19'0 0.0
2016-Sep-15 18:33N 37°49' W 122°19'0 0.0
2016-Sep-15 12:34N 37°49' W 122°19'0 0.0
2016-Sep-15 11:34N 37°49' W 122°19'  
Track history (hours):
 
Tides and Currents Weather Stations Pressure Air Temp Water Temp Dewpoint Dewpoint Depression Visibility Wind Speed Wind Dir Waves Ship Positions

Patriot

Owner: AMNAV Maritime Corporation, Oakland, CA. More information available from US FCC via Universal Licensing System and Coast Guard Vessel Documentation Center.

Last reported at 2016-Sep-25 09:33 UTC. Time now 2016-Sep-25 10:34 UTC.
Position N 37°49' W 122°19'.

Length 31 m; draft 4.6 m.

Type: Tug. MMSI: 366998680.

Date/timePositionNaut miles runAvg speedWind from/ knotsBaromVisibWave heightAir tempDewpointWater temp
2016-Sep-25 09:33N 37°49' W 122°19'0 0.0
2016-Sep-25 07:33N 37°49' W 122°19'0 0.0
2016-Sep-25 04:33N 37°49' W 122°19'0 0.0
2016-Sep-25 00:33N 37°49' W 122°19'0 0.0
2016-Sep-24 22:33N 37°49' W 122°19'0 0.0
2016-Sep-24 21:33N 37°49' W 122°19'0 0.0
2016-Sep-24 19:33N 37°49' W 122°19'0 0.0
2016-Sep-24 18:33N 37°49' W 122°19'0 0.0
2016-Sep-24 17:33N 37°49' W 122°19'0 0.0
2016-Sep-24 16:33N 37°49' W 122°19'0 0.0
2016-Sep-24 14:33N 37°49' W 122°19'1 0.4
2016-Sep-24 12:33N 37°49' W 122°20'1 0.4
2016-Sep-24 10:33N 37°49' W 122°19'0 0.0
2016-Sep-24 09:33N 37°49' W 122°19'0 0.0
2016-Sep-24 03:33N 37°49' W 122°19'0 0.0
2016-Sep-24 02:33N 37°49' W 122°19'0 0.0
2016-Sep-24 01:33N 37°49' W 122°19'0 0.0
2016-Sep-24 00:33N 37°49' W 122°19'0 0.0
2016-Sep-23 19:33N 37°49' W 122°19'0 0.0
2016-Sep-23 17:34N 37°49' W 122°19'0 0.0
2016-Sep-23 16:33N 37°49' W 122°19'0 0.0
2016-Sep-23 15:33N 37°49' W 122°19'6 3.1
2016-Sep-23 13:33N 37°55' W 122°22'13 0.4
2016-Sep-22 03:13N 38°02' W 122°08'13 4.9
2016-Sep-22 00:33N 37°55' W 122°22'2 2.3
2016-Sep-21 23:33N 37°54' W 122°25'7 6.8
2016-Sep-21 22:33N 37°49' W 122°19'0 0.0
2016-Sep-21 19:33N 37°49' W 122°19'0 0.0
2016-Sep-21 16:33N 37°49' W 122°19'9 1.3
2016-Sep-21 09:33N 37°57' W 122°26'8 7.9
2016-Sep-21 08:33N 38°03' W 122°19'9 2.8
2016-Sep-21 05:30N 38°02' W 122°08'0 0.0
2016-Sep-21 03:33N 38°02' W 122°08'0 0.0
2016-Sep-21 02:33N 38°02' W 122°08'13 0.5
2016-Sep-20 02:33N 37°60' W 122°25'12 4.2
2016-Sep-19 23:33N 37°48' W 122°19'2 0.4
2016-Sep-19 19:33N 37°49' W 122°19'0 0.0
2016-Sep-19 18:33N 37°49' W 122°19'0 0.0
2016-Sep-19 16:33N 37°49' W 122°19'0 0.0
2016-Sep-19 14:33N 37°49' W 122°19'2 1.6
2016-Sep-19 13:34N 37°48' W 122°19'0 0.3
2016-Sep-19 12:33N 37°48' W 122°18'2 1.8
2016-Sep-19 11:33N 37°49' W 122°19'0 0.0
2016-Sep-19 09:33N 37°49' W 122°19'0 0.0
2016-Sep-19 07:34N 37°49' W 122°19'0 0.0
2016-Sep-19 06:34N 37°49' W 122°19'0 0.0
2016-Sep-19 03:34N 37°49' W 122°19'0 0.0
2016-Sep-19 02:34N 37°49' W 122°19'0 0.0
2016-Sep-19 00:34N 37°49' W 122°19'0 0.0
2016-Sep-18 19:34N 37°49' W 122°19'0 0.0
2016-Sep-18 15:34N 37°49' W 122°19'1 0.8
2016-Sep-18 14:33N 37°49' W 122°20'1 0.2
2016-Sep-18 10:33N 37°49' W 122°19'0 0.0
2016-Sep-18 09:33N 37°49' W 122°19'0 0.0
2016-Sep-18 02:33N 37°49' W 122°19'0 0.0
2016-Sep-18 01:33N 37°49' W 122°19'0 0.0
2016-Sep-18 00:33N 37°49' W 122°19'1 0.7
2016-Sep-17 22:33N 37°49' W 122°20'7 6.6
2016-Sep-17 21:33N 37°54' W 122°24'1 0.9
2016-Sep-17 20:33N 37°54' W 122°23'6 4.7
2016-Sep-17 19:16N 37°49' W 122°19'2 0.3
2016-Sep-17 13:33N 37°49' W 122°20'1 0.8
2016-Sep-17 12:33N 37°49' W 122°19'1 0.5
2016-Sep-17 10:33N 37°48' W 122°21'0 0.0
2016-Sep-17 09:33N 37°48' W 122°21'0 0.0
2016-Sep-17 08:33N 37°48' W 122°21'0 0.0
2016-Sep-17 07:33N 37°48' W 122°21'0 0.0
2016-Sep-17 05:33N 37°48' W 122°21'3 2.5
2016-Sep-17 04:33N 37°50' W 122°22'3 0.8
2016-Sep-17 00:33N 37°49' W 122°19'0 0.0
2016-Sep-16 17:33N 37°49' W 122°19'6 2.9
2016-Sep-16 15:33N 37°53' W 122°24'6 1.9
2016-Sep-16 12:33N 37°49' W 122°19'0 0.0
2016-Sep-16 09:33N 37°49' W 122°19'0 0.0
2016-Sep-16 07:33N 37°49' W 122°19'0 0.0
2016-Sep-16 03:33N 37°49' W 122°19'0 0.0
2016-Sep-16 02:33N 37°49' W 122°19'0 0.0
2016-Sep-16 00:33N 37°49' W 122°19'0 0.0
2016-Sep-15 22:33N 37°49' W 122°19'0 0.0
2016-Sep-15 21:33N 37°49' W 122°19'0 0.0
2016-Sep-15 20:33N 37°49' W 122°19'0 0.0
2016-Sep-15 18:33N 37°49' W 122°19'0 0.0
2016-Sep-15 12:34N 37°49' W 122°19'0 0.0
2016-Sep-15 11:34N 37°49' W 122°19'  

Dump ship's entire track history